sensor_id;sensor_type;location;lat;lon;timestamp;temperature;humidity
3053;DHT22;1536;51.098;6.414;2022-12-05T00:00:09;6.40;99.90
3053;DHT22;1536;51.098;6.414;2022-12-05T00:02:36;6.40;99.90
3053;DHT22;1536;51.098;6.414;2022-12-05T00:05:03;6.40;99.90
3053;DHT22;1536;51.098;6.414;2022-12-05T00:07:30;6.40;99.90
3053;DHT22;1536;51.098;6.414;2022-12-05T00:09:57;6.40;99.90
3053;DHT22;1536;51.098;6.414;2022-12-05T00:12:24;6.40;99.90
3053;DHT22;1536;51.098;6.414;2022-12-05T00:14:50;6.40;99.90
3053;DHT22;1536;51.098;6.414;2022-12-05T00:17:19;6.40;99.90
3053;DHT22;1536;51.098;6.414;2022-12-05T00:19:46;6.40;99.90
3053;DHT22;1536;51.098;6.414;2022-12-05T00:22:12;6.40;99.90
3053;DHT22;1536;51.098;6.414;2022-12-05T00:24:39;6.40;99.90
3053;DHT22;1536;51.098;6.414;2022-12-05T00:27:06;6.40;99.90
3053;DHT22;1536;51.098;6.414;2022-12-05T00:29:32;6.30;99.90
3053;DHT22;1536;51.098;6.414;2022-12-05T00:31:59;6.30;99.90
3053;DHT22;1536;51.098;6.414;2022-12-05T00:34:27;6.40;99.90
3053;DHT22;1536;51.098;6.414;2022-12-05T00:36:54;6.30;99.90
3053;DHT22;1536;51.098;6.414;2022-12-05T00:39:21;6.30;99.90
3053;DHT22;1536;51.098;6.414;2022-12-05T00:41:47;6.30;99.90
3053;DHT22;1536;51.098;6.414;2022-12-05T00:44:14;6.30;99.90
3053;DHT22;1536;51.098;6.414;2022-12-05T00:46:41;6.30;99.90
3053;DHT22;1536;51.098;6.414;2022-12-05T00:49:10;6.30;99.90
3053;DHT22;1536;51.098;6.414;2022-12-05T00:51:39;6.30;99.90
3053;DHT22;1536;51.098;6.414;2022-12-05T00:54:08;6.30;99.90
3053;DHT22;1536;51.098;6.414;2022-12-05T00:56:35;6.30;99.90
3053;DHT22;1536;51.098;6.414;2022-12-05T00:59:03;6.30;99.90
3053;DHT22;1536;51.098;6.414;2022-12-05T01:01:32;6.30;99.90
3053;DHT22;1536;51.098;6.414;2022-12-05T01:04:01;6.30;99.90
3053;DHT22;1536;51.098;6.414;2022-12-05T01:06:29;6.30;99.90
3053;DHT22;1536;51.098;6.414;2022-12-05T01:08:57;6.30;99.90
3053;DHT22;1536;51.098;6.414;2022-12-05T01:11:25;6.30;99.90
3053;DHT22;1536;51.098;6.414;2022-12-05T01:13:52;6.30;99.90
3053;DHT22;1536;51.098;6.414;2022-12-05T01:16:21;6.30;99.90
3053;DHT22;1536;51.098;6.414;2022-12-05T01:18:48;6.30;99.90
3053;DHT22;1536;51.098;6.414;2022-12-05T01:21:16;6.30;99.90
3053;DHT22;1536;51.098;6.414;2022-12-05T01:23:42;6.30;99.90
3053;DHT22;1536;51.098;6.414;2022-12-05T01:26:12;6.30;99.90
3053;DHT22;1536;51.098;6.414;2022-12-05T01:28:40;6.30;99.90
3053;DHT22;1536;51.098;6.414;2022-12-05T01:31:09;6.30;99.90
3053;DHT22;1536;51.098;6.414;2022-12-05T01:33:40;6.30;99.90
3053;DHT22;1536;51.098;6.414;2022-12-05T01:36:09;6.20;99.90
3053;DHT22;1536;51.098;6.414;2022-12-05T01:38:37;6.20;99.90
3053;DHT22;1536;51.098;6.414;2022-12-05T01:41:05;6.20;99.90
3053;DHT22;1536;51.098;6.414;2022-12-05T01:43:52;6.20;99.90
3053;DHT22;1536;51.098;6.414;2022-12-05T01:46:19;6.20;99.90
3053;DHT22;1536;51.098;6.414;2022-12-05T01:48:45;6.20;99.90
3053;DHT22;1536;51.098;6.414;2022-12-05T01:51:12;6.30;99.90
3053;DHT22;1536;51.098;6.414;2022-12-05T01:53:40;6.30;99.90
3053;DHT22;1536;51.098;6.414;2022-12-05T01:56:07;6.30;99.90
3053;DHT22;1536;51.098;6.414;2022-12-05T01:58:37;6.30;99.90
3053;DHT22;1536;51.098;6.414;2022-12-05T02:01:04;6.30;99.90
3053;DHT22;1536;51.098;6.414;2022-12-05T02:03:31;6.30;99.90
3053;DHT22;1536;51.098;6.414;2022-12-05T02:05:58;6.30;99.90
3053;DHT22;1536;51.098;6.414;2022-12-05T02:08:27;6.30;99.90
3053;DHT22;1536;51.098;6.414;2022-12-05T02:10:55;6.30;99.90
3053;DHT22;1536;51.098;6.414;2022-12-05T02:13:33;6.30;99.90
3053;DHT22;1536;51.098;6.414;2022-12-05T02:16:10;6.40;99.90
3053;DHT22;1536;51.098;6.414;2022-12-05T02:18:44;6.40;99.90
3053;DHT22;1536;51.098;6.414;2022-12-05T02:21:51;6.30;99.90
3053;DHT22;1536;51.098;6.414;2022-12-05T02:24:51;6.30;99.90
3053;DHT22;1536;51.098;6.414;2022-12-05T02:27:33;6.40;99.90
3053;DHT22;1536;51.098;6.414;2022-12-05T02:30:07;6.40;99.90
3053;DHT22;1536;51.098;6.414;2022-12-05T02:35:33;6.40;99.90
3053;DHT22;1536;51.098;6.414;2022-12-05T02:38:12;6.40;99.90
3053;DHT22;1536;51.098;6.414;2022-12-05T02:40:49;6.40;99.90
3053;DHT22;1536;51.098;6.414;2022-12-05T02:43:21;6.40;99.90
3053;DHT22;1536;51.098;6.414;2022-12-05T02:45:51;6.30;99.90
3053;DHT22;1536;51.098;6.414;2022-12-05T02:48:19;6.30;99.90
3053;DHT22;1536;51.098;6.414;2022-12-05T02:50:47;6.30;99.90
3053;DHT22;1536;51.098;6.414;2022-12-05T02:53:16;6.30;99.90
3053;DHT22;1536;51.098;6.414;2022-12-05T02:55:45;6.30;99.90
3053;DHT22;1536;51.098;6.414;2022-12-05T02:58:16;6.30;99.90
3053;DHT22;1536;51.098;6.414;2022-12-05T03:00:47;6.30;99.90
3053;DHT22;1536;51.098;6.414;2022-12-05T03:03:17;6.30;99.90
3053;DHT22;1536;51.098;6.414;2022-12-05T03:05:49;6.30;99.90
3053;DHT22;1536;51.098;6.414;2022-12-05T03:08:21;6.30;99.90
3053;DHT22;1536;51.098;6.414;2022-12-05T03:10:50;6.20;99.90
3053;DHT22;1536;51.098;6.414;2022-12-05T03:13:20;6.20;99.90
3053;DHT22;1536;51.098;6.414;2022-12-05T03:15:52;6.20;99.90
3053;DHT22;1536;51.098;6.414;2022-12-05T03:18:24;6.20;99.90
3053;DHT22;1536;51.098;6.414;2022-12-05T03:20:55;6.20;99.90
3053;DHT22;1536;51.098;6.414;2022-12-05T03:23:25;6.30;99.90
3053;DHT22;1536;51.098;6.414;2022-12-05T03:26:01;6.20;99.90
3053;DHT22;1536;51.098;6.414;2022-12-05T03:28:43;6.30;99.90
3053;DHT22;1536;51.098;6.414;2022-12-05T03:31:13;6.30;99.90
3053;DHT22;1536;51.098;6.414;2022-12-05T03:33:46;6.30;99.90
3053;DHT22;1536;51.098;6.414;2022-12-05T03:36:18;6.30;99.90
3053;DHT22;1536;51.098;6.414;2022-12-05T03:38:51;6.20;99.90
3053;DHT22;1536;51.098;6.414;2022-12-05T03:41:23;6.20;99.90
3053;DHT22;1536;51.098;6.414;2022-12-05T03:43:55;6.20;99.90
3053;DHT22;1536;51.098;6.414;2022-12-05T03:46:26;6.20;99.90
3053;DHT22;1536;51.098;6.414;2022-12-05T03:48:58;6.20;99.90
3053;DHT22;1536;51.098;6.414;2022-12-05T03:51:33;6.20;99.90
3053;DHT22;1536;51.098;6.414;2022-12-05T03:54:05;6.20;99.90
3053;DHT22;1536;51.098;6.414;2022-12-05T03:56:37;6.20;99.90
3053;DHT22;1536;51.098;6.414;2022-12-05T03:59:09;6.20;99.90
3053;DHT22;1536;51.098;6.414;2022-12-05T04:01:39;6.20;99.90
3053;DHT22;1536;51.098;6.414;2022-12-05T04:04:13;6.20;99.90
3053;DHT22;1536;51.098;6.414;2022-12-05T04:06:42;6.20;99.90
3053;DHT22;1536;51.098;6.414;2022-12-05T04:09:14;6.10;99.90
3053;DHT22;1536;51.098;6.414;2022-12-05T04:11:46;6.10;99.90
3053;DHT22;1536;51.098;6.414;2022-12-05T04:14:16;6.10;99.90
3053;DHT22;1536;51.098;6.414;2022-12-05T04:16:47;6.10;99.90
3053;DHT22;1536;51.098;6.414;2022-12-05T04:19:35;6.00;99.90
3053;DHT22;1536;51.098;6.414;2022-12-05T04:22:17;6.00;99.90
3053;DHT22;1536;51.098;6.414;2022-12-05T04:24:45;5.90;99.90
3053;DHT22;1536;51.098;6.414;2022-12-05T04:27:36;5.90;99.90
3053;DHT22;1536;51.098;6.414;2022-12-05T04:30:07;5.90;99.90
3053;DHT22;1536;51.098;6.414;2022-12-05T04:32:37;5.90;99.90
3053;DHT22;1536;51.098;6.414;2022-12-05T04:35:11;5.80;99.90
3053;DHT22;1536;51.098;6.414;2022-12-05T04:37:42;5.80;99.90
3053;DHT22;1536;51.098;6.414;2022-12-05T04:40:13;5.80;99.90
3053;DHT22;1536;51.098;6.414;2022-12-05T04:42:44;5.80;99.90
3053;DHT22;1536;51.098;6.414;2022-12-05T04:45:14;5.70;99.90
3053;DHT22;1536;51.098;6.414;2022-12-05T04:47:45;5.70;99.90
3053;DHT22;1536;51.098;6.414;2022-12-05T04:50:15;5.70;99.90
3053;DHT22;1536;51.098;6.414;2022-12-05T04:52:45;5.70;99.90
3053;DHT22;1536;51.098;6.414;2022-12-05T04:55:16;5.70;99.90
3053;DHT22;1536;51.098;6.414;2022-12-05T04:57:49;5.60;99.90
3053;DHT22;1536;51.098;6.414;2022-12-05T05:00:18;5.60;99.90
3053;DHT22;1536;51.098;6.414;2022-12-05T05:02:48;5.60;99.90
3053;DHT22;1536;51.098;6.414;2022-12-05T05:05:17;5.50;99.90
3053;DHT22;1536;51.098;6.414;2022-12-05T05:07:46;5.50;99.90
3053;DHT22;1536;51.098;6.414;2022-12-05T05:10:17;5.50;99.90
3053;DHT22;1536;51.098;6.414;2022-12-05T05:12:45;5.40;99.90
3053;DHT22;1536;51.098;6.414;2022-12-05T05:15:11;5.50;99.90
3053;DHT22;1536;51.098;6.414;2022-12-05T05:17:38;5.40;99.90
3053;DHT22;1536;51.098;6.414;2022-12-05T05:20:06;5.40;99.90
3053;DHT22;1536;51.098;6.414;2022-12-05T05:22:48;5.40;99.90
3053;DHT22;1536;51.098;6.414;2022-12-05T05:25:15;5.40;99.90
3053;DHT22;1536;51.098;6.414;2022-12-05T05:27:42;5.40;99.90
3053;DHT22;1536;51.098;6.414;2022-12-05T05:30:09;5.30;99.90
3053;DHT22;1536;51.098;6.414;2022-12-05T05:32:36;5.30;99.90
3053;DHT22;1536;51.098;6.414;2022-12-05T05:35:03;5.30;99.90
3053;DHT22;1536;51.098;6.414;2022-12-05T05:37:29;5.30;99.90
3053;DHT22;1536;51.098;6.414;2022-12-05T05:39:57;5.30;99.90
3053;DHT22;1536;51.098;6.414;2022-12-05T05:42:24;5.20;99.90
3053;DHT22;1536;51.098;6.414;2022-12-05T05:44:51;5.20;99.90
3053;DHT22;1536;51.098;6.414;2022-12-05T05:47:17;5.20;99.90
3053;DHT22;1536;51.098;6.414;2022-12-05T05:49:44;5.10;99.90
3053;DHT22;1536;51.098;6.414;2022-12-05T05:52:11;5.10;99.90
3053;DHT22;1536;51.098;6.414;2022-12-05T05:54:37;5.10;99.90
3053;DHT22;1536;51.098;6.414;2022-12-05T05:57:06;5.10;99.90
3053;DHT22;1536;51.098;6.414;2022-12-05T05:59:32;5.00;99.90
3053;DHT22;1536;51.098;6.414;2022-12-05T06:01:59;5.00;99.90
3053;DHT22;1536;51.098;6.414;2022-12-05T06:04:26;5.00;99.90
3053;DHT22;1536;51.098;6.414;2022-12-05T06:06:52;5.00;99.90
3053;DHT22;1536;51.098;6.414;2022-12-05T06:09:19;5.00;99.90
3053;DHT22;1536;51.098;6.414;2022-12-05T06:11:46;4.90;99.90
3053;DHT22;1536;51.098;6.414;2022-12-05T06:14:14;4.90;99.90
3053;DHT22;1536;51.098;6.414;2022-12-05T06:16:41;4.90;99.90
3053;DHT22;1536;51.098;6.414;2022-12-05T06:19:07;4.90;99.90
3053;DHT22;1536;51.098;6.414;2022-12-05T06:21:34;4.80;99.90
3053;DHT22;1536;51.098;6.414;2022-12-05T06:24:01;4.80;99.90
3053;DHT22;1536;51.098;6.414;2022-12-05T06:26:27;4.80;99.90
3053;DHT22;1536;51.098;6.414;2022-12-05T06:28:54;4.80;99.90
3053;DHT22;1536;51.098;6.414;2022-12-05T06:31:25;4.80;99.90
3053;DHT22;1536;51.098;6.414;2022-12-05T06:33:58;4.80;99.90
3053;DHT22;1536;51.098;6.414;2022-12-05T06:36:26;4.80;99.90
3053;DHT22;1536;51.098;6.414;2022-12-05T06:38:54;4.70;99.90
3053;DHT22;1536;51.098;6.414;2022-12-05T06:41:22;4.70;99.90
3053;DHT22;1536;51.098;6.414;2022-12-05T06:43:51;4.70;99.90
3053;DHT22;1536;51.098;6.414;2022-12-05T06:46:17;4.70;99.90
3053;DHT22;1536;51.098;6.414;2022-12-05T06:48:46;4.70;99.90
3053;DHT22;1536;51.098;6.414;2022-12-05T06:51:14;4.70;99.90
3053;DHT22;1536;51.098;6.414;2022-12-05T06:53:42;4.70;99.90
3053;DHT22;1536;51.098;6.414;2022-12-05T06:56:11;4.60;99.90
3053;DHT22;1536;51.098;6.414;2022-12-05T06:58:38;4.60;99.90
3053;DHT22;1536;51.098;6.414;2022-12-05T07:01:07;4.60;99.90
3053;DHT22;1536;51.098;6.414;2022-12-05T07:03:54;4.60;99.90
3053;DHT22;1536;51.098;6.414;2022-12-05T07:06:20;4.50;99.90
3053;DHT22;1536;51.098;6.414;2022-12-05T07:08:47;4.50;99.90
3053;DHT22;1536;51.098;6.414;2022-12-05T07:11:14;4.50;99.90
3053;DHT22;1536;51.098;6.414;2022-12-05T07:13:40;4.40;99.90
3053;DHT22;1536;51.098;6.414;2022-12-05T07:16:07;4.40;99.90
3053;DHT22;1536;51.098;6.414;2022-12-05T07:18:35;4.40;99.90
3053;DHT22;1536;51.098;6.414;2022-12-05T07:21:05;4.40;99.90
3053;DHT22;1536;51.098;6.414;2022-12-05T07:23:32;4.40;99.90
3053;DHT22;1536;51.098;6.414;2022-12-05T07:26:03;4.40;99.90
3053;DHT22;1536;51.098;6.414;2022-12-05T07:28:30;4.40;99.90
3053;DHT22;1536;51.098;6.414;2022-12-05T07:31:00;4.40;99.90
3053;DHT22;1536;51.098;6.414;2022-12-05T07:33:27;4.40;99.90
3053;DHT22;1536;51.098;6.414;2022-12-05T07:35:59;4.40;99.90
3053;DHT22;1536;51.098;6.414;2022-12-05T07:38:27;4.40;99.90
3053;DHT22;1536;51.098;6.414;2022-12-05T07:40:54;4.40;99.90
3053;DHT22;1536;51.098;6.414;2022-12-05T07:43:21;4.40;99.90
3053;DHT22;1536;51.098;6.414;2022-12-05T07:45:48;4.40;99.90
3053;DHT22;1536;51.098;6.414;2022-12-05T07:48:15;4.40;99.90
3053;DHT22;1536;51.098;6.414;2022-12-05T07:50:42;4.50;99.90
3053;DHT22;1536;51.098;6.414;2022-12-05T07:53:09;4.50;99.90
3053;DHT22;1536;51.098;6.414;2022-12-05T07:55:37;4.50;99.90
3053;DHT22;1536;51.098;6.414;2022-12-05T07:58:04;4.50;99.90
3053;DHT22;1536;51.098;6.414;2022-12-05T08:00:31;4.50;99.90
3053;DHT22;1536;51.098;6.414;2022-12-05T08:02:58;4.50;99.90
3053;DHT22;1536;51.098;6.414;2022-12-05T08:05:24;4.50;99.90
3053;DHT22;1536;51.098;6.414;2022-12-05T08:07:51;4.50;99.90
3053;DHT22;1536;51.098;6.414;2022-12-05T08:10:18;4.50;99.90
3053;DHT22;1536;51.098;6.414;2022-12-05T08:12:46;4.60;99.90
3053;DHT22;1536;51.098;6.414;2022-12-05T08:15:12;4.50;99.90
3053;DHT22;1536;51.098;6.414;2022-12-05T08:17:39;4.60;99.90
3053;DHT22;1536;51.098;6.414;2022-12-05T08:20:07;4.60;99.90
3053;DHT22;1536;51.098;6.414;2022-12-05T08:22:34;4.60;99.90
3053;DHT22;1536;51.098;6.414;2022-12-05T08:25:00;4.60;99.90
3053;DHT22;1536;51.098;6.414;2022-12-05T08:27:27;4.60;99.90
3053;DHT22;1536;51.098;6.414;2022-12-05T08:29:55;4.60;99.90
3053;DHT22;1536;51.098;6.414;2022-12-05T08:32:22;4.60;99.90
3053;DHT22;1536;51.098;6.414;2022-12-05T08:34:48;4.60;99.90
3053;DHT22;1536;51.098;6.414;2022-12-05T08:37:15;4.70;99.90
3053;DHT22;1536;51.098;6.414;2022-12-05T08:39:42;4.70;99.90
3053;DHT22;1536;51.098;6.414;2022-12-05T08:42:09;4.70;99.90
3053;DHT22;1536;51.098;6.414;2022-12-05T08:44:35;4.70;99.90
3053;DHT22;1536;51.098;6.414;2022-12-05T08:47:03;4.70;99.90
3053;DHT22;1536;51.098;6.414;2022-12-05T08:49:30;4.70;99.90
3053;DHT22;1536;51.098;6.414;2022-12-05T08:51:57;4.70;99.90
3053;DHT22;1536;51.098;6.414;2022-12-05T08:54:24;4.70;99.90
3053;DHT22;1536;51.098;6.414;2022-12-05T08:56:51;4.70;99.90
3053;DHT22;1536;51.098;6.414;2022-12-05T08:59:18;4.60;99.90
3053;DHT22;1536;51.098;6.414;2022-12-05T09:01:45;4.70;99.90
3053;DHT22;1536;51.098;6.414;2022-12-05T09:04:13;4.70;99.90
3053;DHT22;1536;51.098;6.414;2022-12-05T09:06:40;4.60;99.90
3053;DHT22;1536;51.098;6.414;2022-12-05T09:09:08;4.60;99.90
3053;DHT22;1536;51.098;6.414;2022-12-05T09:11:37;4.60;99.90
3053;DHT22;1536;51.098;6.414;2022-12-05T09:14:05;4.60;99.90
3053;DHT22;1536;51.098;6.414;2022-12-05T09:16:34;4.60;99.90
3053;DHT22;1536;51.098;6.414;2022-12-05T09:19:01;4.60;99.90
3053;DHT22;1536;51.098;6.414;2022-12-05T09:21:30;4.50;99.90
3053;DHT22;1536;51.098;6.414;2022-12-05T09:23:58;4.50;99.90
3053;DHT22;1536;51.098;6.414;2022-12-05T09:26:26;4.50;99.90
3053;DHT22;1536;51.098;6.414;2022-12-05T09:28:52;4.50;99.90
3053;DHT22;1536;51.098;6.414;2022-12-05T09:31:21;4.50;99.90
3053;DHT22;1536;51.098;6.414;2022-12-05T09:33:49;4.50;99.90
3053;DHT22;1536;51.098;6.414;2022-12-05T09:36:18;4.50;99.90
3053;DHT22;1536;51.098;6.414;2022-12-05T09:38:46;4.50;99.90
3053;DHT22;1536;51.098;6.414;2022-12-05T09:41:22;4.50;99.90
3053;DHT22;1536;51.098;6.414;2022-12-05T09:44:11;4.50;99.90
3053;DHT22;1536;51.098;6.414;2022-12-05T09:46:46;4.50;99.90
3053;DHT22;1536;51.098;6.414;2022-12-05T09:49:16;4.50;99.90
3053;DHT22;1536;51.098;6.414;2022-12-05T09:51:45;4.40;99.90
3053;DHT22;1536;51.098;6.414;2022-12-05T09:54:14;4.40;99.90
3053;DHT22;1536;51.098;6.414;2022-12-05T09:56:42;4.40;99.90
3053;DHT22;1536;51.098;6.414;2022-12-05T09:59:13;4.40;99.90
3053;DHT22;1536;51.098;6.414;2022-12-05T10:01:44;4.40;99.90
3053;DHT22;1536;51.098;6.414;2022-12-05T10:04:22;4.40;99.90
3053;DHT22;1536;51.098;6.414;2022-12-05T10:06:57;4.40;99.90
3053;DHT22;1536;51.098;6.414;2022-12-05T10:09:38;4.40;99.90
3053;DHT22;1536;51.098;6.414;2022-12-05T10:12:15;4.40;99.90
3053;DHT22;1536;51.098;6.414;2022-12-05T10:14:51;4.40;99.90
3053;DHT22;1536;51.098;6.414;2022-12-05T10:17:24;4.40;99.90
3053;DHT22;1536;51.098;6.414;2022-12-05T10:20:16;4.40;99.90
3053;DHT22;1536;51.098;6.414;2022-12-05T10:22:46;4.40;99.90
3053;DHT22;1536;51.098;6.414;2022-12-05T10:25:18;4.40;99.90
3053;DHT22;1536;51.098;6.414;2022-12-05T10:27:49;4.40;99.90
3053;DHT22;1536;51.098;6.414;2022-12-05T10:30:18;4.40;99.90
3053;DHT22;1536;51.098;6.414;2022-12-05T10:32:51;4.40;99.90
3053;DHT22;1536;51.098;6.414;2022-12-05T10:35:20;4.40;99.90
3053;DHT22;1536;51.098;6.414;2022-12-05T10:37:50;4.50;99.90
3053;DHT22;1536;51.098;6.414;2022-12-05T10:40:19;4.50;99.90
3053;DHT22;1536;51.098;6.414;2022-12-05T10:42:47;4.50;99.90
3053;DHT22;1536;51.098;6.414;2022-12-05T10:45:18;4.50;99.90
3053;DHT22;1536;51.098;6.414;2022-12-05T10:47:46;4.50;99.90
3053;DHT22;1536;51.098;6.414;2022-12-05T10:50:21;4.50;99.90
3053;DHT22;1536;51.098;6.414;2022-12-05T10:52:49;4.50;99.90
3053;DHT22;1536;51.098;6.414;2022-12-05T10:55:19;4.50;99.90
3053;DHT22;1536;51.098;6.414;2022-12-05T10:57:49;4.50;99.90
3053;DHT22;1536;51.098;6.414;2022-12-05T11:00:21;4.50;99.90
3053;DHT22;1536;51.098;6.414;2022-12-05T11:03:03;4.50;99.90
3053;DHT22;1536;51.098;6.414;2022-12-05T11:05:31;4.50;99.90
3053;DHT22;1536;51.098;6.414;2022-12-05T11:07:59;4.50;99.90
3053;DHT22;1536;51.098;6.414;2022-12-05T11:10:32;4.50;99.90
3053;DHT22;1536;51.098;6.414;2022-12-05T11:13:00;4.50;99.90
3053;DHT22;1536;51.098;6.414;2022-12-05T11:15:28;4.50;99.90
3053;DHT22;1536;51.098;6.414;2022-12-05T11:17:58;4.50;99.90
3053;DHT22;1536;51.098;6.414;2022-12-05T11:20:35;4.50;99.90
3053;DHT22;1536;51.098;6.414;2022-12-05T11:23:25;4.50;99.90
3053;DHT22;1536;51.098;6.414;2022-12-05T11:25:55;4.50;99.90
3053;DHT22;1536;51.098;6.414;2022-12-05T11:28:29;4.60;99.90
3053;DHT22;1536;51.098;6.414;2022-12-05T11:30:57;4.60;99.90
3053;DHT22;1536;51.098;6.414;2022-12-05T11:33:26;4.60;99.90
3053;DHT22;1536;51.098;6.414;2022-12-05T11:35:54;4.60;99.90
3053;DHT22;1536;51.098;6.414;2022-12-05T11:38:26;4.60;99.90
3053;DHT22;1536;51.098;6.414;2022-12-05T11:41:07;4.60;99.90
3053;DHT22;1536;51.098;6.414;2022-12-05T11:43:52;4.60;99.90
3053;DHT22;1536;51.098;6.414;2022-12-05T11:46:26;4.70;99.90
3053;DHT22;1536;51.098;6.414;2022-12-05T11:49:06;4.70;99.90
3053;DHT22;1536;51.098;6.414;2022-12-05T11:51:39;4.70;99.90
3053;DHT22;1536;51.098;6.414;2022-12-05T11:57:10;4.80;99.90
3053;DHT22;1536;51.098;6.414;2022-12-05T12:00:04;4.80;99.90
3053;DHT22;1536;51.098;6.414;2022-12-05T12:02:42;4.80;99.90
3053;DHT22;1536;51.098;6.414;2022-12-05T12:05:17;4.80;99.90
3053;DHT22;1536;51.098;6.414;2022-12-05T12:07:57;4.90;99.90
3053;DHT22;1536;51.098;6.414;2022-12-05T12:10:32;4.80;99.90
3053;DHT22;1536;51.098;6.414;2022-12-05T12:13:15;4.90;99.90
3053;DHT22;1536;51.098;6.414;2022-12-05T12:15:52;4.90;99.90
3053;DHT22;1536;51.098;6.414;2022-12-05T12:18:44;4.90;99.90
3053;DHT22;1536;51.098;6.414;2022-12-05T12:21:18;4.90;99.90
3053;DHT22;1536;51.098;6.414;2022-12-05T12:24:00;4.90;99.90
3053;DHT22;1536;51.098;6.414;2022-12-05T12:26:39;4.90;99.90
3053;DHT22;1536;51.098;6.414;2022-12-05T12:29:17;4.90;99.90
3053;DHT22;1536;51.098;6.414;2022-12-05T12:31:54;4.90;99.90
3053;DHT22;1536;51.098;6.414;2022-12-05T12:34:44;4.90;99.90
3053;DHT22;1536;51.098;6.414;2022-12-05T12:37:21;4.90;99.90
3053;DHT22;1536;51.098;6.414;2022-12-05T12:39:51;4.90;99.90
3053;DHT22;1536;51.098;6.414;2022-12-05T12:42:24;4.90;99.90
3053;DHT22;1536;51.098;6.414;2022-12-05T12:45:16;4.90;99.90
3053;DHT22;1536;51.098;6.414;2022-12-05T12:48:01;4.90;99.90
3053;DHT22;1536;51.098;6.414;2022-12-05T12:50:32;4.90;99.90
3053;DHT22;1536;51.098;6.414;2022-12-05T12:53:22;4.90;99.90
3053;DHT22;1536;51.098;6.414;2022-12-05T12:56:02;4.90;99.90
3053;DHT22;1536;51.098;6.414;2022-12-05T12:58:42;4.90;99.90
3053;DHT22;1536;51.098;6.414;2022-12-05T13:01:24;4.80;99.90
3053;DHT22;1536;51.098;6.414;2022-12-05T13:03:55;4.80;99.90
3053;DHT22;1536;51.098;6.414;2022-12-05T13:06:29;4.80;99.90
3053;DHT22;1536;51.098;6.414;2022-12-05T13:09:01;4.80;99.90
3053;DHT22;1536;51.098;6.414;2022-12-05T13:11:32;4.80;99.90
3053;DHT22;1536;51.098;6.414;2022-12-05T13:14:00;4.80;99.90
3053;DHT22;1536;51.098;6.414;2022-12-05T13:16:31;4.80;99.90
3053;DHT22;1536;51.098;6.414;2022-12-05T13:19:00;4.80;99.90
3053;DHT22;1536;51.098;6.414;2022-12-05T13:21:28;4.80;99.90
3053;DHT22;1536;51.098;6.414;2022-12-05T13:23:56;4.80;99.90
3053;DHT22;1536;51.098;6.414;2022-12-05T13:26:27;4.80;99.90
3053;DHT22;1536;51.098;6.414;2022-12-05T13:28:56;4.70;99.90
3053;DHT22;1536;51.098;6.414;2022-12-05T13:31:39;4.70;99.90
3053;DHT22;1536;51.098;6.414;2022-12-05T13:37:22;4.70;99.90
3053;DHT22;1536;51.098;6.414;2022-12-05T13:43:22;4.70;99.90
3053;DHT22;1536;51.098;6.414;2022-12-05T13:46:01;4.70;99.90
3053;DHT22;1536;51.098;6.414;2022-12-05T13:48:30;4.60;99.90
3053;DHT22;1536;51.098;6.414;2022-12-05T13:51:06;4.60;99.90
3053;DHT22;1536;51.098;6.414;2022-12-05T13:53:36;4.60;99.90
3053;DHT22;1536;51.098;6.414;2022-12-05T13:56:06;4.70;99.90
3053;DHT22;1536;51.098;6.414;2022-12-05T13:58:49;4.60;99.90
3053;DHT22;1536;51.098;6.414;2022-12-05T14:01:47;4.60;99.90
3053;DHT22;1536;51.098;6.414;2022-12-05T14:04:42;4.60;99.90
3053;DHT22;1536;51.098;6.414;2022-12-05T14:07:10;4.60;99.90
3053;DHT22;1536;51.098;6.414;2022-12-05T14:09:52;4.60;99.90
3053;DHT22;1536;51.098;6.414;2022-12-05T14:12:35;4.60;99.90
3053;DHT22;1536;51.098;6.414;2022-12-05T14:15:27;4.60;99.90
3053;DHT22;1536;51.098;6.414;2022-12-05T14:17:56;4.50;99.90
3053;DHT22;1536;51.098;6.414;2022-12-05T14:20:44;4.50;99.90
3053;DHT22;1536;51.098;6.414;2022-12-05T14:23:28;4.50;99.90
3053;DHT22;1536;51.098;6.414;2022-12-05T14:26:11;4.50;99.90
3053;DHT22;1536;51.098;6.414;2022-12-05T14:29:03;4.50;99.90
3053;DHT22;1536;51.098;6.414;2022-12-05T14:31:43;4.50;99.90
3053;DHT22;1536;51.098;6.414;2022-12-05T14:34:21;4.50;99.90
3053;DHT22;1536;51.098;6.414;2022-12-05T14:36:59;4.50;99.90
3053;DHT22;1536;51.098;6.414;2022-12-05T14:39:34;4.50;99.90
3053;DHT22;1536;51.098;6.414;2022-12-05T14:42:04;4.40;99.90
3053;DHT22;1536;51.098;6.414;2022-12-05T14:44:33;4.40;99.90
3053;DHT22;1536;51.098;6.414;2022-12-05T14:47:00;4.40;99.90
3053;DHT22;1536;51.098;6.414;2022-12-05T14:49:34;4.40;99.90
3053;DHT22;1536;51.098;6.414;2022-12-05T14:52:09;4.40;99.90
3053;DHT22;1536;51.098;6.414;2022-12-05T14:54:37;4.40;99.90
3053;DHT22;1536;51.098;6.414;2022-12-05T14:57:10;4.40;99.90
3053;DHT22;1536;51.098;6.414;2022-12-05T14:59:44;4.40;99.90
3053;DHT22;1536;51.098;6.414;2022-12-05T15:02:19;4.40;99.90
3053;DHT22;1536;51.098;6.414;2022-12-05T15:04:50;4.40;99.90
3053;DHT22;1536;51.098;6.414;2022-12-05T15:07:21;4.40;99.90
3053;DHT22;1536;51.098;6.414;2022-12-05T15:09:55;4.30;99.90
3053;DHT22;1536;51.098;6.414;2022-12-05T15:12:25;4.40;99.90
3053;DHT22;1536;51.098;6.414;2022-12-05T15:14:58;4.40;99.90
3053;DHT22;1536;51.098;6.414;2022-12-05T15:17:31;4.40;99.90
3053;DHT22;1536;51.098;6.414;2022-12-05T15:20:04;4.40;99.90
3053;DHT22;1536;51.098;6.414;2022-12-05T15:22:36;4.40;99.90
3053;DHT22;1536;51.098;6.414;2022-12-05T15:25:28;4.40;99.90
3053;DHT22;1536;51.098;6.414;2022-12-05T15:27:57;4.40;99.90
3053;DHT22;1536;51.098;6.414;2022-12-05T15:30:25;4.40;99.90
3053;DHT22;1536;51.098;6.414;2022-12-05T15:32:52;4.40;99.90
3053;DHT22;1536;51.098;6.414;2022-12-05T15:35:22;4.40;99.90
3053;DHT22;1536;51.098;6.414;2022-12-05T15:37:53;4.40;99.90
3053;DHT22;1536;51.098;6.414;2022-12-05T15:40:22;4.40;99.90
3053;DHT22;1536;51.098;6.414;2022-12-05T15:42:52;4.40;99.90
3053;DHT22;1536;51.098;6.414;2022-12-05T15:45:23;4.40;99.90
3053;DHT22;1536;51.098;6.414;2022-12-05T15:47:52;4.40;99.90
3053;DHT22;1536;51.098;6.414;2022-12-05T15:50:25;4.40;99.90
3053;DHT22;1536;51.098;6.414;2022-12-05T15:52:58;4.40;99.90
3053;DHT22;1536;51.098;6.414;2022-12-05T15:55:30;4.40;99.90
3053;DHT22;1536;51.098;6.414;2022-12-05T15:58:02;4.40;99.90
3053;DHT22;1536;51.098;6.414;2022-12-05T16:00:33;4.40;99.90
3053;DHT22;1536;51.098;6.414;2022-12-05T16:03:05;4.40;99.90
3053;DHT22;1536;51.098;6.414;2022-12-05T16:05:38;4.40;99.90
3053;DHT22;1536;51.098;6.414;2022-12-05T16:08:07;4.40;99.90
3053;DHT22;1536;51.098;6.414;2022-12-05T16:10:34;4.40;99.90
3053;DHT22;1536;51.098;6.414;2022-12-05T16:13:04;4.40;99.90
3053;DHT22;1536;51.098;6.414;2022-12-05T16:15:32;4.40;99.90
3053;DHT22;1536;51.098;6.414;2022-12-05T16:18:02;4.40;99.90
3053;DHT22;1536;51.098;6.414;2022-12-05T16:20:31;4.40;99.90
3053;DHT22;1536;51.098;6.414;2022-12-05T16:23:01;4.40;99.90
3053;DHT22;1536;51.098;6.414;2022-12-05T16:25:32;4.40;99.90
3053;DHT22;1536;51.098;6.414;2022-12-05T16:28:15;4.40;99.90
3053;DHT22;1536;51.098;6.414;2022-12-05T16:30:55;4.40;99.90
3053;DHT22;1536;51.098;6.414;2022-12-05T16:33:23;4.40;99.90
3053;DHT22;1536;51.098;6.414;2022-12-05T16:35:49;4.40;99.90
3053;DHT22;1536;51.098;6.414;2022-12-05T16:38:19;4.50;99.90
3053;DHT22;1536;51.098;6.414;2022-12-05T16:40:56;4.50;99.90
3053;DHT22;1536;51.098;6.414;2022-12-05T16:43:26;4.50;99.90
3053;DHT22;1536;51.098;6.414;2022-12-05T16:45:56;4.50;99.90
3053;DHT22;1536;51.098;6.414;2022-12-05T16:48:25;4.50;99.90
3053;DHT22;1536;51.098;6.414;2022-12-05T16:50:53;4.50;99.90
3053;DHT22;1536;51.098;6.414;2022-12-05T16:53:37;4.50;99.90
3053;DHT22;1536;51.098;6.414;2022-12-05T16:56:08;4.50;99.90